createdAt,value
2024-02-16T00:01:15.008Z,15.50
2024-02-16T00:03:41.456Z,14.97
2024-02-16T00:06:08.496Z,16.60
2024-02-16T00:08:35.726Z,16.07
2024-02-16T00:11:02.177Z,13.60
2024-02-16T00:13:28.514Z,15.87
2024-02-16T00:15:54.884Z,15.53
2024-02-16T00:18:21.391Z,15.23
2024-02-16T00:20:47.979Z,16.20
2024-02-16T00:23:14.349Z,18.30
2024-02-16T00:25:41.717Z,18.10
2024-02-16T00:28:09.306Z,18.30
2024-02-16T00:30:35.892Z,17.53
2024-02-16T00:33:02.482Z,18.47
2024-02-16T00:35:29.414Z,18.47
2024-02-16T00:37:55.777Z,17.50
2024-02-16T00:40:22.995Z,16.23
2024-02-16T00:42:49.333Z,15.47
2024-02-16T00:45:15.685Z,15.00
2024-02-16T00:47:42.075Z,12.50
2024-02-16T00:50:10.438Z,14.23
2024-02-16T00:52:36.918Z,13.37
2024-02-16T00:55:05.112Z,13.93
2024-02-16T00:57:35.590Z,12.83
2024-02-16T01:00:02.257Z,14.90
2024-02-16T01:02:30.295Z,14.60
2024-02-16T01:05:02.957Z,14.33
2024-02-16T01:07:30.876Z,14.40
2024-02-16T01:09:59.113Z,12.83
2024-02-16T01:12:25.686Z,13.50
2024-02-16T01:14:52.186Z,13.17
2024-02-16T01:17:18.645Z,13.00
2024-02-16T01:19:45.051Z,13.07
2024-02-16T01:22:11.413Z,12.90
2024-02-16T01:24:38.215Z,11.83
2024-02-16T01:27:04.739Z,12.30
2024-02-16T01:29:31.154Z,11.53
2024-02-16T01:31:57.563Z,12.07
2024-02-16T01:34:24.067Z,10.10
2024-02-16T01:36:50.495Z,11.67
2024-02-16T01:39:16.927Z,11.60
2024-02-16T01:41:43.301Z,10.23
2024-02-16T01:44:09.662Z,9.60
2024-02-16T01:46:36.617Z,9.00
2024-02-16T01:49:03.514Z,8.13
2024-02-16T01:51:31.054Z,8.80
2024-02-16T01:53:58.927Z,8.20
2024-02-16T01:56:29.199Z,8.83
2024-02-16T01:58:56.668Z,7.13
2024-02-16T02:01:23.986Z,8.07
2024-02-16T02:03:51.054Z,7.80
2024-02-16T02:06:21.392Z,7.10
2024-02-16T02:08:48.219Z,7.67
2024-02-16T02:11:14.665Z,7.10
2024-02-16T02:13:42.535Z,6.43
2024-02-16T02:16:11.398Z,6.10
2024-02-16T02:18:38.831Z,6.93
2024-02-16T02:21:05.917Z,6.80
2024-02-16T02:23:32.346Z,6.53
2024-02-16T02:25:58.689Z,6.00
2024-02-16T02:28:25.807Z,5.13
2024-02-16T02:30:52.155Z,6.80
2024-02-16T02:33:18.721Z,6.77
2024-02-16T02:35:45.327Z,6.17
2024-02-16T02:38:11.793Z,6.53
2024-02-16T02:40:38.481Z,6.10
2024-02-16T02:43:04.963Z,5.33
2024-02-16T02:45:31.973Z,6.00
2024-02-16T02:47:58.484Z,6.20
2024-02-16T02:50:25.275Z,6.10
2024-02-16T02:52:51.636Z,5.63
2024-02-16T02:55:17.998Z,5.87
2024-02-16T02:57:44.398Z,6.00
2024-02-16T03:00:14.771Z,5.43
2024-02-16T03:02:41.677Z,4.90
2024-02-16T03:05:08.391Z,4.57
2024-02-16T03:07:35.559Z,4.83
2024-02-16T03:10:04.162Z,4.70
2024-02-16T03:12:30.636Z,5.20
2024-02-16T03:14:57.149Z,4.83
2024-02-16T03:17:23.506Z,4.73
2024-02-16T03:19:49.993Z,4.30
2024-02-16T03:22:16.449Z,5.00
2024-02-16T03:24:42.905Z,4.93
2024-02-16T03:27:09.262Z,5.70
2024-02-16T03:29:35.697Z,5.30
2024-02-16T03:32:03.219Z,5.30
2024-02-16T03:34:29.627Z,5.70
2024-02-16T03:36:56.111Z,4.80
2024-02-16T03:39:22.509Z,5.53
2024-02-16T03:41:49.801Z,4.60
2024-02-16T03:44:19.076Z,4.53
2024-02-16T03:46:45.404Z,4.80
2024-02-16T03:49:12.002Z,4.50
2024-02-16T03:51:38.586Z,4.93
2024-02-16T03:54:05.500Z,4.93
2024-02-16T03:56:32.005Z,4.77
2024-02-16T03:58:58.690Z,5.20
2024-02-16T04:01:25.062Z,5.77
2024-02-16T04:03:53.138Z,4.93
2024-02-16T04:06:20.631Z,5.27
2024-02-16T04:08:46.984Z,4.77
2024-02-16T04:11:14.841Z,5.60
2024-02-16T04:13:41.264Z,5.00
2024-02-16T04:16:07.745Z,4.87
2024-02-16T04:18:34.186Z,5.23
2024-02-16T04:21:00.617Z,4.90
2024-02-16T04:23:27.000Z,5.10
2024-02-16T04:25:53.389Z,4.70
2024-02-16T04:28:19.709Z,5.30
2024-02-16T04:30:46.039Z,5.03
2024-02-16T04:33:12.503Z,5.50
2024-02-16T04:35:39.281Z,5.30
2024-02-16T04:38:05.746Z,4.70
2024-02-16T04:40:36.545Z,5.47
2024-02-16T04:43:02.906Z,5.43
2024-02-16T04:45:31.365Z,5.13
2024-02-16T04:47:57.915Z,5.30
2024-02-16T04:50:24.718Z,4.83
2024-02-16T04:52:51.121Z,4.80
2024-02-16T04:55:17.733Z,5.03
2024-02-16T04:57:44.059Z,5.23
2024-02-16T05:00:11.076Z,4.90
2024-02-16T05:02:37.617Z,4.87
2024-02-16T05:05:04.926Z,5.30
2024-02-16T05:07:32.564Z,4.57
2024-02-16T05:09:59.642Z,5.20
2024-02-16T05:12:27.362Z,5.10
2024-02-16T05:14:53.963Z,5.30
2024-02-16T05:17:21.502Z,5.00
2024-02-16T05:19:47.949Z,4.50
2024-02-16T05:22:15.430Z,4.73
2024-02-16T05:24:41.807Z,4.87
2024-02-16T05:27:08.204Z,4.67
2024-02-16T05:29:34.846Z,4.77
2024-02-16T05:32:01.198Z,5.23
2024-02-16T05:34:27.722Z,4.97
2024-02-16T05:36:54.268Z,4.57
2024-02-16T05:39:43.532Z,4.73
2024-02-16T05:42:09.933Z,5.00
2024-02-16T05:44:36.275Z,4.53
2024-02-16T05:47:04.284Z,4.70
2024-02-16T05:49:31.384Z,4.93
2024-02-16T05:52:16.581Z,4.80
2024-02-16T05:54:42.931Z,5.27
2024-02-16T05:57:10.235Z,4.97
2024-02-16T05:59:37.304Z,4.10
2024-02-16T06:02:03.878Z,5.13
2024-02-16T06:04:30.251Z,4.40
2024-02-16T06:06:56.747Z,4.83
2024-02-16T06:09:23.211Z,4.70
2024-02-16T06:11:49.920Z,5.37
2024-02-16T06:14:19.562Z,5.03
2024-02-16T06:16:47.257Z,4.63
2024-02-16T06:19:13.784Z,4.13
2024-02-16T06:21:40.292Z,4.57
2024-02-16T06:24:06.752Z,4.70
2024-02-16T06:26:33.103Z,5.30
2024-02-16T06:28:59.459Z,4.30
2024-02-16T06:31:25.799Z,4.73
2024-02-16T06:33:52.301Z,5.03
2024-02-16T06:36:18.722Z,4.50
2024-02-16T06:38:45.185Z,4.33
2024-02-16T06:41:13.579Z,4.07
2024-02-16T06:43:39.916Z,4.40
2024-02-16T06:46:06.246Z,4.60
2024-02-16T06:48:32.699Z,4.43
2024-02-16T06:50:59.185Z,4.53
2024-02-16T06:53:25.941Z,4.70
2024-02-16T06:55:52.550Z,4.60
2024-02-16T06:58:18.893Z,3.87
2024-02-16T07:00:45.394Z,4.27
2024-02-16T07:03:11.820Z,4.30
2024-02-16T07:05:38.286Z,4.23
2024-02-16T07:08:07.493Z,4.13
2024-02-16T07:10:34.559Z,4.20
2024-02-16T07:13:01.670Z,4.23
2024-02-16T07:15:28.197Z,4.10
2024-02-16T07:17:54.810Z,4.50
2024-02-16T07:20:21.229Z,3.80
2024-02-16T07:22:47.869Z,4.10
2024-02-16T07:25:14.340Z,4.23
2024-02-16T07:27:40.732Z,4.07
2024-02-16T07:30:07.677Z,3.90
2024-02-16T07:32:34.191Z,4.27
2024-02-16T07:35:00.874Z,4.20
2024-02-16T07:37:27.894Z,3.83
2024-02-16T07:39:54.218Z,3.70
2024-02-16T07:42:21.794Z,3.70
2024-02-16T07:44:48.269Z,4.40
2024-02-16T07:47:14.614Z,3.83
2024-02-16T07:49:41.219Z,3.90
2024-02-16T07:52:07.734Z,3.80
2024-02-16T07:54:34.227Z,3.50
2024-02-16T07:57:01.932Z,3.10
2024-02-16T07:59:28.640Z,3.60
2024-02-16T08:01:54.982Z,3.67
2024-02-16T08:04:21.334Z,3.90
2024-02-16T08:06:47.917Z,4.07
2024-02-16T08:09:15.288Z,4.17
2024-02-16T08:11:41.748Z,4.00
2024-02-16T08:14:09.265Z,3.87
2024-02-16T08:16:35.682Z,4.67
2024-02-16T08:19:02.117Z,4.00
2024-02-16T08:21:28.624Z,4.23
2024-02-16T08:23:55.063Z,3.33
2024-02-16T08:26:22.464Z,3.30
2024-02-16T08:28:48.898Z,3.50
2024-02-16T08:31:19.239Z,3.47
2024-02-16T08:33:46.413Z,3.30
2024-02-16T08:36:12.956Z,3.10
2024-02-16T08:38:39.397Z,3.23
2024-02-16T08:41:05.945Z,3.07
2024-02-16T08:43:32.339Z,2.93
2024-02-16T08:45:58.706Z,3.53
2024-02-16T08:48:26.038Z,3.20
2024-02-16T08:50:52.818Z,3.20
2024-02-16T08:53:19.238Z,2.60
2024-02-16T08:55:45.932Z,2.93
2024-02-16T08:58:13.751Z,2.77
2024-02-16T09:00:40.513Z,2.70
2024-02-16T09:03:07.518Z,2.57
2024-02-16T09:05:34.114Z,2.83
2024-02-16T09:08:00.484Z,2.90
2024-02-16T09:10:26.823Z,2.83
2024-02-16T09:12:53.165Z,2.93
2024-02-16T09:15:19.582Z,2.50
2024-02-16T09:17:46.009Z,2.77
2024-02-16T09:20:12.894Z,2.73
2024-02-16T09:22:46.779Z,2.83
2024-02-16T09:25:15.380Z,2.83
2024-02-16T09:27:45.850Z,2.70
2024-02-16T09:30:13.714Z,2.57
2024-02-16T09:32:41.287Z,2.47
2024-02-16T09:35:10.728Z,2.90
2024-02-16T09:37:38.143Z,2.90
2024-02-16T09:40:06.282Z,2.67
2024-02-16T09:42:34.099Z,2.60
2024-02-16T09:45:00.534Z,2.80
2024-02-16T09:47:29.962Z,3.20
2024-02-16T09:49:56.681Z,2.80
2024-02-16T09:52:23.374Z,2.40
2024-02-16T09:54:49.772Z,2.43
2024-02-16T09:57:19.955Z,2.73
2024-02-16T09:59:46.705Z,2.60
2024-02-16T10:02:13.071Z,2.67
2024-02-16T10:04:39.427Z,2.90
2024-02-16T10:07:11.788Z,2.60
2024-02-16T10:09:41.142Z,2.50
2024-02-16T10:12:08.352Z,2.70
2024-02-16T10:14:34.866Z,2.60
2024-02-16T10:17:03.731Z,2.43
2024-02-16T10:19:40.844Z,2.53
2024-02-16T10:22:12.005Z,2.33
2024-02-16T10:24:43.652Z,2.57
2024-02-16T10:27:17.563Z,2.40
2024-02-16T10:29:45.521Z,2.00
2024-02-16T10:32:12.578Z,2.10
2024-02-16T10:34:40.494Z,2.60
2024-02-16T10:37:07.412Z,2.17
2024-02-16T10:39:34.971Z,2.50
2024-02-16T10:42:02.865Z,2.57
2024-02-16T10:44:29.299Z,1.90
2024-02-16T10:46:59.151Z,2.57
2024-02-16T10:49:25.841Z,2.30
2024-02-16T10:51:58.218Z,2.50
2024-02-16T10:54:34.750Z,2.70
2024-02-16T10:57:01.503Z,2.17
2024-02-16T10:59:30.148Z,2.40
2024-02-16T11:02:01.385Z,2.37
2024-02-16T11:04:40.281Z,2.30
2024-02-16T11:07:16.671Z,2.53
2024-02-16T11:09:44.624Z,2.03
2024-02-16T11:12:14.097Z,2.40
2024-02-16T11:14:45.362Z,2.30
2024-02-16T11:17:13.062Z,2.40
2024-02-16T11:19:44.245Z,2.70
2024-02-16T11:22:12.756Z,2.30
2024-02-16T11:24:45.319Z,2.50
2024-02-16T11:27:12.777Z,2.10
2024-02-16T11:29:39.818Z,2.63
2024-02-16T11:32:07.032Z,2.23
2024-02-16T11:34:34.731Z,2.40
2024-02-16T11:37:02.556Z,2.53
2024-02-16T11:39:34.382Z,2.47
2024-02-16T11:42:05.980Z,2.40
2024-02-16T11:44:33.466Z,2.43
2024-02-16T11:47:01.074Z,2.40
2024-02-16T11:49:29.534Z,2.50
2024-02-16T11:51:56.486Z,2.47
2024-02-16T11:54:23.118Z,2.30
2024-02-16T11:56:53.509Z,2.70
2024-02-16T11:59:20.391Z,2.93
2024-02-16T12:01:55.156Z,2.73
2024-02-16T12:04:29.709Z,2.50
2024-02-16T12:07:04.429Z,2.73
2024-02-16T12:09:35.732Z,2.43
2024-02-16T12:12:02.914Z,3.17
2024-02-16T12:14:29.330Z,2.53
2024-02-16T12:16:59.484Z,2.70
2024-02-16T12:19:26.308Z,3.27
2024-02-16T12:21:53.580Z,3.00
2024-02-16T12:24:21.283Z,2.50
2024-02-16T12:26:47.918Z,3.13
2024-02-16T12:29:14.574Z,2.67
2024-02-16T12:31:42.330Z,2.50
2024-02-16T12:34:09.225Z,2.80
2024-02-16T12:36:36.342Z,2.90
2024-02-16T12:39:07.244Z,3.13
2024-02-16T12:41:35.134Z,3.10
2024-02-16T12:44:01.537Z,3.43
2024-02-16T12:46:29.184Z,3.13
2024-02-16T12:48:55.987Z,3.37
2024-02-16T12:51:22.580Z,3.17
2024-02-16T12:53:49.032Z,3.17
2024-02-16T12:56:15.460Z,3.47
2024-02-16T12:58:41.968Z,3.40
2024-02-16T13:01:11.840Z,3.57
2024-02-16T13:03:46.158Z,3.50
2024-02-16T13:06:13.005Z,3.43
2024-02-16T13:08:39.650Z,3.27
2024-02-16T13:11:06.153Z,3.53
2024-02-16T13:13:33.268Z,3.77
2024-02-16T13:16:00.248Z,3.30
2024-02-16T13:18:27.049Z,3.97
2024-02-16T13:20:53.523Z,3.97
2024-02-16T13:23:19.923Z,3.60
2024-02-16T13:25:46.609Z,3.77
2024-02-16T13:28:12.941Z,3.63
2024-02-16T13:30:39.477Z,3.70
2024-02-16T13:33:06.563Z,4.00
2024-02-16T13:35:33.019Z,3.60
2024-02-16T13:38:00.426Z,3.30
2024-02-16T13:40:26.744Z,4.60
2024-02-16T13:42:56.517Z,4.13
2024-02-16T13:45:22.906Z,4.27
2024-02-16T13:47:49.449Z,4.23
2024-02-16T13:50:16.776Z,3.67
2024-02-16T13:52:43.192Z,4.20
2024-02-16T13:55:09.674Z,3.83
2024-02-16T13:57:36.939Z,3.97
2024-02-16T14:00:03.802Z,4.17
2024-02-16T14:02:30.709Z,4.07
2024-02-16T14:04:57.714Z,4.27
2024-02-16T14:07:24.315Z,4.03
2024-02-16T14:09:50.721Z,4.00
2024-02-16T14:12:17.119Z,4.37
2024-02-16T14:14:43.490Z,4.57
2024-02-16T14:17:09.809Z,4.63
2024-02-16T14:19:38.737Z,4.73
2024-02-16T14:22:07.974Z,4.57
2024-02-16T14:24:34.404Z,4.63
2024-02-16T14:27:02.190Z,5.10
2024-02-16T14:29:30.057Z,4.70
2024-02-16T14:31:56.991Z,4.70
2024-02-16T14:34:23.484Z,4.80
2024-02-16T14:36:49.972Z,5.43
2024-02-16T14:39:17.758Z,5.17
2024-02-16T14:41:44.196Z,4.80
2024-02-16T14:44:11.952Z,5.30
2024-02-16T14:46:38.297Z,5.43
2024-02-16T14:49:11.660Z,5.30
2024-02-16T14:51:43.121Z,5.63
2024-02-16T14:54:10.539Z,5.60
2024-02-16T14:56:37.121Z,5.80
2024-02-16T14:59:03.461Z,5.97
2024-02-16T15:01:29.851Z,6.03
2024-02-16T15:03:56.337Z,6.30
2024-02-16T15:06:22.779Z,7.17
2024-02-16T15:08:49.154Z,7.07
2024-02-16T15:11:17.482Z,6.40
2024-02-16T15:13:44.081Z,6.80
2024-02-16T15:16:10.408Z,7.00
2024-02-16T15:18:36.931Z,7.03
2024-02-16T15:21:03.721Z,8.23
2024-02-16T15:23:30.126Z,7.37
2024-02-16T15:25:56.496Z,7.50
2024-02-16T15:28:22.876Z,7.50
2024-02-16T15:30:50.094Z,7.23
2024-02-16T15:33:17.179Z,5.47
2024-02-16T15:35:43.563Z,5.33
2024-02-16T15:38:09.899Z,5.43
2024-02-16T15:40:37.016Z,4.40
2024-02-16T15:43:05.176Z,4.30
2024-02-16T15:45:31.974Z,4.03
2024-02-16T15:47:58.839Z,3.90
2024-02-16T15:50:31.086Z,3.33
2024-02-16T15:52:57.613Z,3.77
2024-02-16T15:55:23.998Z,3.33
2024-02-16T15:57:50.422Z,3.20
2024-02-16T16:00:17.202Z,3.53
2024-02-16T16:02:43.542Z,3.33
2024-02-16T16:05:09.986Z,3.40
2024-02-16T16:07:36.428Z,3.57
2024-02-16T16:10:03.100Z,3.53
2024-02-16T16:12:29.742Z,3.50
2024-02-16T16:14:56.215Z,3.87
2024-02-16T16:17:22.625Z,3.87
2024-02-16T16:19:49.447Z,3.93
2024-02-16T16:22:15.827Z,4.23
2024-02-16T16:24:42.351Z,3.93
2024-02-16T16:27:08.916Z,3.73
2024-02-16T16:29:35.521Z,3.70
2024-02-16T16:32:06.302Z,3.97
2024-02-16T16:34:33.183Z,3.67
2024-02-16T16:36:59.659Z,3.57
2024-02-16T16:39:26.126Z,3.57
2024-02-16T16:41:55.795Z,3.63
2024-02-16T16:44:23.755Z,3.57
2024-02-16T16:46:50.510Z,4.00
2024-02-16T16:49:20.277Z,3.77
2024-02-16T16:51:47.206Z,4.17
2024-02-16T16:54:13.647Z,4.03
2024-02-16T16:56:40.082Z,4.43
2024-02-16T16:59:06.602Z,4.27
2024-02-16T17:01:33.092Z,3.80
2024-02-16T17:04:01.154Z,4.00
2024-02-16T17:06:28.796Z,4.70
2024-02-16T17:08:55.373Z,4.10
2024-02-16T17:11:24.001Z,4.10
2024-02-16T17:13:50.698Z,4.10
2024-02-16T17:16:17.217Z,4.43
2024-02-16T17:18:43.827Z,4.70
2024-02-16T17:21:10.537Z,4.90
2024-02-16T17:23:36.922Z,4.90
2024-02-16T17:26:04.141Z,5.10
2024-02-16T17:28:30.715Z,5.70
2024-02-16T17:30:57.047Z,6.53
2024-02-16T17:33:23.651Z,7.10
2024-02-16T17:35:50.365Z,7.97
2024-02-16T17:38:16.857Z,8.20
2024-02-16T17:40:43.372Z,8.67
2024-02-16T17:43:09.923Z,8.57
2024-02-16T17:45:39.372Z,8.93
2024-02-16T17:48:06.103Z,8.63
2024-02-16T17:50:33.381Z,7.23
2024-02-16T17:52:59.719Z,7.23
2024-02-16T17:55:26.044Z,7.70
2024-02-16T17:57:52.843Z,7.63
2024-02-16T18:00:19.616Z,6.87
2024-02-16T18:02:48.316Z,7.43
2024-02-16T18:05:16.335Z,7.67
2024-02-16T18:07:42.781Z,7.67
2024-02-16T18:10:09.642Z,7.20
2024-02-16T18:12:36.444Z,7.57
2024-02-16T18:15:04.971Z,8.47
2024-02-16T18:17:31.597Z,7.47
2024-02-16T18:19:58.076Z,8.43
2024-02-16T18:22:24.835Z,7.90
2024-02-16T18:24:51.349Z,7.80
2024-02-16T18:27:20.929Z,8.57
2024-02-16T18:29:47.485Z,8.77
2024-02-16T18:32:13.854Z,8.77
2024-02-16T18:34:40.687Z,8.60
2024-02-16T18:37:07.250Z,7.73
2024-02-16T18:39:34.532Z,8.17
2024-02-16T18:42:01.247Z,7.63
2024-02-16T18:44:27.725Z,8.10
2024-02-16T18:46:54.104Z,7.70
2024-02-16T18:49:21.638Z,8.30
2024-02-16T18:51:48.315Z,7.97
2024-02-16T18:54:14.845Z,8.60
2024-02-16T18:56:41.609Z,9.30
2024-02-16T18:59:09.286Z,10.37
2024-02-16T19:01:36.120Z,10.13
2024-02-16T19:04:06.240Z,8.87
2024-02-16T19:06:33.126Z,8.43
2024-02-16T19:08:59.870Z,7.50
2024-02-16T19:11:27.253Z,6.77
2024-02-16T19:13:53.879Z,6.37
2024-02-16T19:16:20.286Z,5.77
2024-02-16T19:18:47.174Z,6.73
2024-02-16T19:21:13.587Z,6.53
2024-02-16T19:23:40.111Z,5.90
2024-02-16T19:26:08.998Z,6.33
2024-02-16T19:28:39.246Z,6.00
2024-02-16T19:31:07.792Z,5.93
2024-02-16T19:33:34.898Z,6.10
2024-02-16T19:36:01.901Z,6.47
2024-02-16T19:38:28.466Z,5.87
2024-02-16T19:40:54.881Z,6.57
2024-02-16T19:43:21.723Z,6.23
2024-02-16T19:45:48.113Z,7.27
2024-02-16T19:48:14.682Z,5.90
2024-02-16T19:50:41.139Z,5.97
2024-02-16T19:53:08.824Z,6.30
2024-02-16T19:55:35.175Z,6.53
2024-02-16T19:58:01.561Z,6.50
2024-02-16T20:00:30.148Z,6.50
2024-02-16T20:02:57.259Z,6.33
2024-02-16T20:05:25.255Z,6.47
2024-02-16T20:07:53.122Z,7.37
2024-02-16T20:10:19.978Z,6.53
2024-02-16T20:12:46.399Z,7.70
2024-02-16T20:15:12.914Z,8.20
2024-02-16T20:17:39.665Z,7.80
2024-02-16T20:20:06.983Z,7.60
2024-02-16T20:22:33.597Z,6.97
2024-02-16T20:25:00.580Z,7.20
2024-02-16T20:27:27.431Z,7.33
2024-02-16T20:29:53.852Z,8.10
2024-02-16T20:32:22.633Z,8.23
2024-02-16T20:34:49.511Z,8.47
2024-02-16T20:37:15.963Z,9.17
2024-02-16T20:39:42.503Z,8.93
2024-02-16T20:42:08.951Z,10.00
2024-02-16T20:44:35.463Z,10.20
2024-02-16T20:47:02.040Z,9.60
2024-02-16T20:49:28.477Z,10.50
2024-02-16T20:51:55.250Z,9.47
2024-02-16T20:54:24.992Z,9.13
2024-02-16T20:56:51.536Z,8.97
2024-02-16T20:59:17.941Z,8.77
2024-02-16T21:01:44.343Z,8.57
2024-02-16T21:04:10.799Z,9.13
2024-02-16T21:06:41.922Z,10.03
2024-02-16T21:09:11.485Z,9.03
2024-02-16T21:11:38.046Z,10.00
2024-02-16T21:14:04.460Z,9.83
2024-02-16T21:16:30.895Z,9.80
2024-02-16T21:18:57.313Z,9.50
2024-02-16T21:21:24.379Z,10.30
2024-02-16T21:23:50.849Z,10.20
2024-02-16T21:26:17.448Z,10.57
2024-02-16T21:28:43.837Z,11.13
2024-02-16T21:31:10.298Z,10.93
2024-02-16T21:33:38.895Z,10.13
2024-02-16T21:36:10.962Z,10.50
2024-02-16T21:38:37.842Z,10.53
2024-02-16T21:41:07.568Z,10.57
2024-02-16T21:43:36.852Z,10.80
2024-02-16T21:46:04.016Z,10.27
2024-02-16T21:48:36.553Z,11.57
2024-02-16T21:51:06.903Z,11.07
2024-02-16T21:53:33.388Z,11.50
2024-02-16T21:55:59.836Z,12.17
2024-02-16T21:58:26.253Z,12.30
2024-02-16T22:00:52.877Z,13.10
2024-02-16T22:03:19.437Z,13.27
2024-02-16T22:05:48.265Z,12.77
2024-02-16T22:08:14.895Z,12.40
2024-02-16T22:10:41.359Z,12.27
2024-02-16T22:13:07.723Z,13.30
2024-02-16T22:15:34.126Z,13.90
2024-02-16T22:18:00.702Z,13.90
2024-02-16T22:20:27.169Z,13.73
2024-02-16T22:22:53.527Z,12.10
2024-02-16T22:25:19.885Z,12.37
2024-02-16T22:27:46.300Z,12.20
2024-02-16T22:30:13.211Z,11.00
2024-02-16T22:32:39.618Z,10.20
2024-02-16T22:35:06.487Z,10.20
2024-02-16T22:37:33.031Z,11.60
2024-02-16T22:39:59.436Z,8.73
2024-02-16T22:42:25.829Z,10.90
2024-02-16T22:44:52.227Z,11.07
2024-02-16T22:47:18.656Z,8.57
2024-02-16T22:49:45.032Z,10.57
2024-02-16T22:52:11.473Z,10.03
2024-02-16T22:54:37.947Z,9.80
2024-02-16T22:57:07.802Z,10.20
2024-02-16T22:59:34.242Z,9.83
2024-02-16T23:02:01.878Z,12.30
2024-02-16T23:04:28.368Z,11.23
2024-02-16T23:06:55.008Z,11.20
2024-02-16T23:09:23.785Z,11.83
2024-02-16T23:11:50.989Z,11.70
2024-02-16T23:14:19.945Z,9.93
2024-02-16T23:16:47.218Z,10.97
2024-02-16T23:19:13.748Z,11.67
2024-02-16T23:21:40.389Z,9.67
2024-02-16T23:24:07.887Z,10.57
2024-02-16T23:26:34.532Z,11.30
2024-02-16T23:29:00.883Z,10.63
2024-02-16T23:31:27.254Z,8.63
2024-02-16T23:33:55.211Z,11.03
2024-02-16T23:36:22.332Z,8.67
2024-02-16T23:38:48.795Z,9.13
2024-02-16T23:41:15.165Z,9.33
2024-02-16T23:43:41.532Z,9.60
2024-02-16T23:46:09.637Z,10.27
2024-02-16T23:48:36.205Z,9.77
2024-02-16T23:51:03.389Z,9.93
2024-02-16T23:53:29.960Z,11.00
2024-02-16T23:55:56.939Z,10.03
2024-02-16T23:58:23.764Z,10.20
